GLO1724 SBBR-SBVT
Flight info
| Callsign | GLO1724 |
|---|---|
| Flight time | 1h 19m |
| Altitude | 37000 |
| Route | SAVPU UZ32 SATBU |
| Aircraft | B738/M-SDFGIKLORWXY/LB1 |
Departure
| Time | 2026-05-09 03:43 |
|---|---|
| Airport | Presidente Juscelino Kubitschek International Airport (SBBR) |
Arrival
| Time | 2026-05-09 05:03 |
|---|---|
| Airport | Eurico de Aguiar Salles International Airport (SBVT) |
| Time | Latitude | Longitude | Altitude | Speed | Heading |
|---|---|---|---|---|---|
| 2026-05-09 03:15 | -15.86857 | -47.91875 | 3471 ft | 0 kts | 356° |
| 2026-05-09 03:30 | -15.86871 | -47.91874 | 3471 ft | 4 kts | 359° |
| 2026-05-09 03:30 | -15.86897 | -47.91876 | 3469 ft | 4 kts | 22° |
| 2026-05-09 03:31 | -15.86914 | -47.91890 | 3468 ft | 4 kts | 84° |
| 2026-05-09 03:31 | -15.86913 | -47.91876 | 3470 ft | 4 kts | 86° |
| 2026-05-09 03:31 | -15.86912 | -47.91864 | 3469 ft | 0 kts | 86° |
| 2026-05-09 03:33 | -15.86912 | -47.91863 | 3469 ft | 1 kts | 86° |
| 2026-05-09 03:34 | -15.86911 | -47.91853 | 3471 ft | 2 kts | 84° |
| 2026-05-09 03:34 | -15.86910 | -47.91834 | 3471 ft | 3 kts | 86° |
| 2026-05-09 03:34 | -15.86908 | -47.91804 | 3471 ft | 5 kts | 86° |
| 2026-05-09 03:34 | -15.86906 | -47.91767 | 3471 ft | 5 kts | 86° |
| 2026-05-09 03:35 | -15.86903 | -47.91728 | 3471 ft | 5 kts | 86° |
| 2026-05-09 03:35 | -15.86922 | -47.91698 | 3471 ft | 5 kts | 153° |
| 2026-05-09 03:35 | -15.86962 | -47.91692 | 3471 ft | 7 kts | 176° |
| 2026-05-09 03:35 | -15.87013 | -47.91689 | 3471 ft | 8 kts | 176° |
| 2026-05-09 03:36 | -15.87074 | -47.91685 | 3471 ft | 9 kts | 176° |
| 2026-05-09 03:36 | -15.87144 | -47.91680 | 3471 ft | 11 kts | 176° |
| 2026-05-09 03:36 | -15.87221 | -47.91674 | 3471 ft | 12 kts | 176° |
| 2026-05-09 03:36 | -15.87305 | -47.91669 | 3471 ft | 12 kts | 176° |
| 2026-05-09 03:37 | -15.87390 | -47.91663 | 3470 ft | 12 kts | 176° |
| 2026-05-09 03:37 | -15.87472 | -47.91657 | 3469 ft | 12 kts | 176° |
| 2026-05-09 03:37 | -15.87551 | -47.91653 | 3466 ft | 11 kts | 177° |
| 2026-05-09 03:37 | -15.87627 | -47.91647 | 3463 ft | 11 kts | 176° |
| 2026-05-09 03:38 | -15.87698 | -47.91644 | 3462 ft | 9 kts | 186° |
| 2026-05-09 03:38 | -15.87736 | -47.91688 | 3462 ft | 9 kts | 255° |
| 2026-05-09 03:38 | -15.87741 | -47.91748 | 3463 ft | 9 kts | 265° |
| 2026-05-09 03:38 | -15.87745 | -47.91816 | 3464 ft | 10 kts | 266° |
| 2026-05-09 03:39 | -15.87750 | -47.91893 | 3466 ft | 11 kts | 266° |
| 2026-05-09 03:39 | -15.87756 | -47.91980 | 3468 ft | 13 kts | 265° |
| 2026-05-09 03:39 | -15.87762 | -47.92081 | 3469 ft | 16 kts | 266° |
| 2026-05-09 03:39 | -15.87771 | -47.92216 | 3472 ft | 21 kts | 266° |
| 2026-05-09 03:40 | -15.87780 | -47.92363 | 3474 ft | 20 kts | 266° |
| 2026-05-09 03:40 | -15.87790 | -47.92504 | 3475 ft | 19 kts | 266° |
| 2026-05-09 03:40 | -15.87799 | -47.92641 | 3475 ft | 19 kts | 266° |
| 2026-05-09 03:40 | -15.87807 | -47.92773 | 3477 ft | 18 kts | 266° |
| 2026-05-09 03:41 | -15.87815 | -47.92901 | 3480 ft | 17 kts | 266° |
| 2026-05-09 03:41 | -15.87823 | -47.93027 | 3481 ft | 18 kts | 266° |
| 2026-05-09 03:41 | -15.87831 | -47.93152 | 3485 ft | 17 kts | 266° |
| 2026-05-09 03:41 | -15.87839 | -47.93274 | 3496 ft | 17 kts | 266° |
| 2026-05-09 03:42 | -15.87862 | -47.93359 | 3500 ft | 11 kts | 226° |
| 2026-05-09 03:42 | -15.87931 | -47.93360 | 3495 ft | 11 kts | 140° |
| 2026-05-09 03:42 | -15.87975 | -47.93282 | 3491 ft | 17 kts | 111° |
| 2026-05-09 03:42 | -15.88010 | -47.93110 | 3484 ft | 43 kts | 91° |
| 2026-05-09 03:43 | -15.87971 | -47.92522 | 3478 ft | 118 kts | 86° |
| 2026-05-09 03:43 | -15.87899 | -47.91439 | 3457 ft | 181 kts | 86° |
| 2026-05-09 03:43 | -15.87811 | -47.90052 | 4114 ft | 192 kts | 86° |
| 2026-05-09 03:43 | -15.87725 | -47.88685 | 5093 ft | 189 kts | 85° |
| 2026-05-09 03:44 | -15.87628 | -47.87269 | 5482 ft | 208 kts | 85° |
| 2026-05-09 03:44 | -15.87526 | -47.85688 | 5665 ft | 232 kts | 85° |
| 2026-05-09 03:44 | -15.87414 | -47.83945 | 5900 ft | 253 kts | 85° |
| 2026-05-09 03:44 | -15.87293 | -47.82055 | 6307 ft | 269 kts | 85° |
| 2026-05-09 03:45 | -15.87167 | -47.80091 | 6941 ft | 274 kts | 85° |
| 2026-05-09 03:45 | -15.87039 | -47.78102 | 7702 ft | 278 kts | 85° |
| 2026-05-09 03:45 | -15.86908 | -47.76082 | 8425 ft | 283 kts | 85° |
| 2026-05-09 03:45 | -15.86774 | -47.74027 | 9156 ft | 288 kts | 85° |
| 2026-05-09 03:46 | -15.86635 | -47.71940 | 9899 ft | 292 kts | 84° |
| 2026-05-09 03:46 | -15.86462 | -47.69836 | 10474 ft | 302 kts | 83° |
| 2026-05-09 03:46 | -15.86262 | -47.67571 | 10672 ft | 325 kts | 83° |
| 2026-05-09 03:46 | -15.86053 | -47.65191 | 11202 ft | 334 kts | 83° |
| 2026-05-09 03:47 | -15.85845 | -47.62777 | 11920 ft | 336 kts | 84° |
| 2026-05-09 03:47 | -15.85636 | -47.60353 | 12656 ft | 338 kts | 84° |
| 2026-05-09 03:47 | -15.85507 | -47.57902 | 13377 ft | 341 kts | 93° |
| 2026-05-09 03:47 | -15.86150 | -47.55524 | 14057 ft | 347 kts | 116° |
| 2026-05-09 03:48 | -15.87616 | -47.53518 | 14632 ft | 354 kts | 137° |
| 2026-05-09 03:48 | -15.89567 | -47.51929 | 15212 ft | 359 kts | 142° |
| 2026-05-09 03:48 | -15.91580 | -47.50415 | 15745 ft | 363 kts | 142° |
| 2026-05-09 03:48 | -15.93646 | -47.48872 | 16267 ft | 368 kts | 142° |
| 2026-05-09 03:49 | -15.95721 | -47.47299 | 16837 ft | 371 kts | 142° |
| 2026-05-09 03:49 | -15.97807 | -47.45694 | 17408 ft | 374 kts | 141° |
| 2026-05-09 03:49 | -15.99904 | -47.44070 | 17954 ft | 377 kts | 141° |
| 2026-05-09 03:49 | -16.01863 | -47.42249 | 18433 ft | 379 kts | 125° |
| 2026-05-09 03:50 | -16.03223 | -47.39918 | 18905 ft | 378 kts | 117° |
| 2026-05-09 03:50 | -16.04500 | -47.37514 | 19366 ft | 381 kts | 117° |
| 2026-05-09 03:50 | -16.05791 | -47.35084 | 19806 ft | 385 kts | 117° |
| 2026-05-09 03:50 | -16.07094 | -47.32645 | 20251 ft | 388 kts | 118° |
| 2026-05-09 03:51 | -16.08413 | -47.30190 | 20700 ft | 391 kts | 118° |
| 2026-05-09 03:51 | -16.09751 | -47.27713 | 21145 ft | 394 kts | 118° |
| 2026-05-09 03:51 | -16.11099 | -47.25225 | 21585 ft | 397 kts | 118° |
| 2026-05-09 03:51 | -16.12443 | -47.22746 | 21965 ft | 401 kts | 118° |
| 2026-05-09 03:52 | -16.13820 | -47.20209 | 22379 ft | 404 kts | 119° |
| 2026-05-09 03:52 | -16.15225 | -47.17620 | 22807 ft | 407 kts | 119° |
| 2026-05-09 03:52 | -16.16600 | -47.15084 | 23268 ft | 408 kts | 119° |
| 2026-05-09 03:52 | -16.17999 | -47.12504 | 23667 ft | 411 kts | 119° |
| 2026-05-09 03:53 | -16.19409 | -47.09903 | 23975 ft | 415 kts | 119° |
| 2026-05-09 03:53 | -16.20833 | -47.07274 | 24299 ft | 418 kts | 119° |
| 2026-05-09 03:53 | -16.22263 | -47.04634 | 24626 ft | 420 kts | 119° |
| 2026-05-09 03:53 | -16.23703 | -47.01974 | 24948 ft | 423 kts | 119° |
| 2026-05-09 03:54 | -16.25154 | -46.99291 | 25266 ft | 426 kts | 119° |
| 2026-05-09 03:54 | -16.26617 | -46.96586 | 25594 ft | 429 kts | 120° |
| 2026-05-09 03:54 | -16.28080 | -46.93880 | 25933 ft | 431 kts | 120° |
| 2026-05-09 03:54 | -16.29554 | -46.91152 | 26246 ft | 434 kts | 120° |
| 2026-05-09 03:55 | -16.31039 | -46.88404 | 26498 ft | 438 kts | 120° |
| 2026-05-09 03:55 | -16.32520 | -46.85661 | 26795 ft | 441 kts | 120° |
| 2026-05-09 03:55 | -16.34031 | -46.82860 | 27133 ft | 443 kts | 120° |
| 2026-05-09 03:55 | -16.35542 | -46.80056 | 27443 ft | 446 kts | 120° |
| 2026-05-09 03:56 | -16.37061 | -46.77235 | 27743 ft | 448 kts | 120° |
| 2026-05-09 03:56 | -16.38094 | -46.75315 | 27940 ft | 450 kts | 120° |
| 2026-05-09 03:56 | -16.39611 | -46.72497 | 28225 ft | 453 kts | 120° |
| 2026-05-09 03:56 | -16.41679 | -46.68651 | 28613 ft | 456 kts | 120° |
| 2026-05-09 03:57 | -16.43234 | -46.65758 | 28890 ft | 459 kts | 120° |
| 2026-05-09 03:57 | -16.44268 | -46.63836 | 29070 ft | 461 kts | 120° |
| 2026-05-09 03:57 | -16.45840 | -46.60911 | 29351 ft | 463 kts | 120° |
| 2026-05-09 03:57 | -16.47448 | -46.57986 | 29636 ft | 466 kts | 121° |
| 2026-05-09 03:58 | -16.49153 | -46.55101 | 29922 ft | 467 kts | 123° |
| 2026-05-09 03:58 | -16.50903 | -46.52238 | 30189 ft | 469 kts | 123° |
| 2026-05-09 03:58 | -16.52673 | -46.49368 | 30422 ft | 471 kts | 123° |
| 2026-05-09 03:58 | -16.54446 | -46.46482 | 30659 ft | 473 kts | 123° |
| 2026-05-09 03:59 | -16.56217 | -46.43578 | 30893 ft | 475 kts | 123° |
| 2026-05-09 03:59 | -16.57984 | -46.40662 | 31119 ft | 477 kts | 123° |
| 2026-05-09 03:59 | -16.59752 | -46.37727 | 31349 ft | 479 kts | 123° |
| 2026-05-09 03:59 | -16.61521 | -46.34783 | 31582 ft | 480 kts | 123° |
| 2026-05-09 04:00 | -16.63293 | -46.31829 | 31813 ft | 482 kts | 123° |
| 2026-05-09 04:00 | -16.65075 | -46.28857 | 32016 ft | 484 kts | 124° |
| 2026-05-09 04:00 | -16.66863 | -46.25874 | 32209 ft | 486 kts | 124° |
| 2026-05-09 04:00 | -16.68634 | -46.22919 | 32418 ft | 487 kts | 124° |
| 2026-05-09 04:01 | -16.70431 | -46.19919 | 32643 ft | 488 kts | 124° |
| 2026-05-09 04:01 | -16.72232 | -46.16912 | 32934 ft | 487 kts | 124° |
| 2026-05-09 04:01 | -16.74022 | -46.13922 | 33282 ft | 485 kts | 124° |
| 2026-05-09 04:01 | -16.75805 | -46.10941 | 33600 ft | 484 kts | 124° |
| 2026-05-09 04:02 | -16.77593 | -46.07954 | 33877 ft | 484 kts | 124° |
| 2026-05-09 04:02 | -16.79372 | -46.04979 | 34112 ft | 484 kts | 124° |
| 2026-05-09 04:02 | -16.81157 | -46.01994 | 34339 ft | 484 kts | 124° |
| 2026-05-09 04:02 | -16.82892 | -45.99088 | 34602 ft | 482 kts | 124° |
| 2026-05-09 04:03 | -16.84665 | -45.96120 | 34860 ft | 481 kts | 124° |
| 2026-05-09 04:03 | -16.86433 | -45.93159 | 35101 ft | 480 kts | 124° |
| 2026-05-09 04:03 | -16.88201 | -45.90197 | 35288 ft | 481 kts | 124° |
| 2026-05-09 04:03 | -16.89970 | -45.87232 | 35483 ft | 481 kts | 124° |
| 2026-05-09 04:04 | -16.91713 | -45.84307 | 35705 ft | 480 kts | 124° |
| 2026-05-09 04:04 | -16.93478 | -45.81346 | 35938 ft | 479 kts | 124° |
| 2026-05-09 04:04 | -16.95238 | -45.78391 | 36145 ft | 479 kts | 124° |
| 2026-05-09 04:04 | -16.97000 | -45.75432 | 36343 ft | 479 kts | 124° |
| 2026-05-09 04:05 | -16.98758 | -45.72479 | 36580 ft | 478 kts | 124° |
| 2026-05-09 04:05 | -17.00506 | -45.69540 | 36787 ft | 477 kts | 124° |
| 2026-05-09 04:05 | -17.02256 | -45.66597 | 36955 ft | 477 kts | 124° |
| 2026-05-09 04:05 | -17.04008 | -45.63650 | 37050 ft | 479 kts | 124° |
| 2026-05-09 04:06 | -17.07526 | -45.57728 | 37054 ft | 478 kts | 124° |
| 2026-05-09 04:06 | -17.11015 | -45.51850 | 37042 ft | 472 kts | 124° |
| 2026-05-09 04:07 | -17.14466 | -45.46032 | 37060 ft | 470 kts | 124° |
| 2026-05-09 04:07 | -17.17902 | -45.40234 | 37066 ft | 468 kts | 124° |
| 2026-05-09 04:08 | -17.21331 | -45.34442 | 37061 ft | 468 kts | 124° |
| 2026-05-09 04:08 | -17.24758 | -45.28648 | 37063 ft | 469 kts | 124° |
| 2026-05-09 04:09 | -17.28196 | -45.22832 | 37068 ft | 470 kts | 124° |
| 2026-05-09 04:09 | -17.31617 | -45.17037 | 37068 ft | 471 kts | 123° |
| 2026-05-09 04:10 | -17.35069 | -45.11185 | 37073 ft | 472 kts | 123° |
| 2026-05-09 04:10 | -17.38500 | -45.05362 | 37069 ft | 473 kts | 123° |
| 2026-05-09 04:11 | -17.41855 | -44.99551 | 37069 ft | 475 kts | 121° |
| 2026-05-09 04:11 | -17.45019 | -44.93472 | 37074 ft | 475 kts | 120° |
| 2026-05-09 04:12 | -17.48147 | -44.87373 | 37071 ft | 475 kts | 120° |
| 2026-05-09 04:12 | -17.51307 | -44.81295 | 37070 ft | 475 kts | 120° |
| 2026-05-09 04:13 | -17.54486 | -44.75222 | 37074 ft | 474 kts | 120° |
| 2026-05-09 04:13 | -17.57653 | -44.69167 | 37082 ft | 473 kts | 120° |
| 2026-05-09 04:14 | -17.60793 | -44.63156 | 37082 ft | 472 kts | 120° |
| 2026-05-09 04:14 | -17.63939 | -44.57124 | 37092 ft | 471 kts | 120° |
| 2026-05-09 04:15 | -17.67080 | -44.51101 | 37097 ft | 470 kts | 120° |
| 2026-05-09 04:15 | -17.70214 | -44.45082 | 37096 ft | 470 kts | 120° |
| 2026-05-09 04:16 | -17.73350 | -44.39055 | 37105 ft | 469 kts | 120° |
| 2026-05-09 04:16 | -17.76473 | -44.33044 | 37100 ft | 469 kts | 120° |
| 2026-05-09 04:17 | -17.79587 | -44.27045 | 37101 ft | 468 kts | 120° |
| 2026-05-09 04:17 | -17.82704 | -44.21035 | 37113 ft | 468 kts | 121° |
| 2026-05-09 04:18 | -17.85812 | -44.15036 | 37115 ft | 468 kts | 120° |
| 2026-05-09 04:18 | -17.88927 | -44.09020 | 37116 ft | 469 kts | 120° |
| 2026-05-09 04:19 | -17.92019 | -44.03041 | 37116 ft | 469 kts | 120° |
| 2026-05-09 04:19 | -17.95081 | -43.97115 | 37122 ft | 470 kts | 121° |
| 2026-05-09 04:20 | -17.98197 | -43.91076 | 37125 ft | 470 kts | 121° |
| 2026-05-09 04:20 | -18.01317 | -43.85028 | 37124 ft | 470 kts | 121° |
| 2026-05-09 04:21 | -18.04431 | -43.78982 | 37138 ft | 470 kts | 121° |
| 2026-05-09 04:22 | -18.09094 | -43.69918 | 37139 ft | 470 kts | 121° |
| 2026-05-09 04:22 | -18.12217 | -43.63874 | 37138 ft | 470 kts | 121° |
| 2026-05-09 04:23 | -18.15375 | -43.57864 | 37142 ft | 469 kts | 122° |
| 2026-05-09 04:23 | -18.18505 | -43.51900 | 37133 ft | 468 kts | 121° |
| 2026-05-09 04:24 | -18.21645 | -43.45896 | 37145 ft | 467 kts | 122° |
| 2026-05-09 04:24 | -18.24775 | -43.39905 | 37140 ft | 466 kts | 122° |
| 2026-05-09 04:25 | -18.27898 | -43.33923 | 37136 ft | 466 kts | 122° |
| 2026-05-09 04:25 | -18.31016 | -43.27942 | 37138 ft | 465 kts | 122° |
| 2026-05-09 04:26 | -18.34107 | -43.22008 | 37131 ft | 465 kts | 122° |
| 2026-05-09 04:26 | -18.37218 | -43.16030 | 37130 ft | 464 kts | 122° |
| 2026-05-09 04:27 | -18.40343 | -43.10080 | 37133 ft | 464 kts | 122° |
| 2026-05-09 04:27 | -18.43552 | -43.04186 | 37128 ft | 463 kts | 123° |
| 2026-05-09 04:28 | -18.46723 | -42.98369 | 37130 ft | 464 kts | 123° |
| 2026-05-09 04:28 | -18.49904 | -42.92493 | 37132 ft | 464 kts | 123° |
| 2026-05-09 04:29 | -18.53096 | -42.86585 | 37132 ft | 465 kts | 123° |
| 2026-05-09 04:29 | -18.56286 | -42.80694 | 37133 ft | 466 kts | 123° |
| 2026-05-09 04:30 | -18.59517 | -42.74772 | 37128 ft | 466 kts | 123° |
| 2026-05-09 04:30 | -18.62748 | -42.68842 | 37129 ft | 466 kts | 123° |
| 2026-05-09 04:31 | -18.65975 | -42.62906 | 37129 ft | 466 kts | 123° |
| 2026-05-09 04:31 | -18.69198 | -42.56972 | 37130 ft | 466 kts | 123° |
| 2026-05-09 04:32 | -18.72421 | -42.51043 | 37120 ft | 466 kts | 123° |
| 2026-05-09 04:32 | -18.75633 | -42.45129 | 37113 ft | 465 kts | 123° |
| 2026-05-09 04:33 | -18.79175 | -42.39482 | 37134 ft | 458 kts | 134° |
| 2026-05-09 04:33 | -18.83387 | -42.34453 | 37120 ft | 456 kts | 136° |
| 2026-05-09 04:34 | -18.87515 | -42.29594 | 37113 ft | 456 kts | 135° |
| 2026-05-09 04:34 | -18.91714 | -42.24563 | 37108 ft | 456 kts | 135° |
| 2026-05-09 04:35 | -18.95890 | -42.19502 | 37103 ft | 456 kts | 135° |
| 2026-05-09 04:35 | -19.00047 | -42.14444 | 37107 ft | 456 kts | 135° |
| 2026-05-09 04:36 | -19.04205 | -42.09380 | 37100 ft | 456 kts | 135° |
| 2026-05-09 04:36 | -19.08338 | -42.04345 | 36985 ft | 458 kts | 135° |
| 2026-05-09 04:36 | -19.10445 | -42.01781 | 36485 ft | 462 kts | 135° |
| 2026-05-09 04:37 | -19.12482 | -41.99297 | 35959 ft | 460 kts | 135° |
| 2026-05-09 04:37 | -19.14584 | -41.96732 | 35376 ft | 461 kts | 134° |
| 2026-05-09 04:37 | -19.16692 | -41.94160 | 34781 ft | 462 kts | 134° |
| 2026-05-09 04:37 | -19.18798 | -41.91589 | 34139 ft | 464 kts | 134° |
| 2026-05-09 04:38 | -19.20916 | -41.89002 | 33426 ft | 466 kts | 134° |
| 2026-05-09 04:38 | -19.23038 | -41.86410 | 32750 ft | 466 kts | 134° |
| 2026-05-09 04:38 | -19.25168 | -41.83807 | 32084 ft | 467 kts | 133° |
| 2026-05-09 04:38 | -19.27283 | -41.81219 | 31610 ft | 463 kts | 133° |
| 2026-05-09 04:39 | -19.29383 | -41.78648 | 31125 ft | 460 kts | 133° |
| 2026-05-09 04:39 | -19.31443 | -41.76126 | 30640 ft | 458 kts | 133° |
| 2026-05-09 04:39 | -19.33524 | -41.73578 | 30159 ft | 455 kts | 133° |
| 2026-05-09 04:39 | -19.35588 | -41.71049 | 29614 ft | 452 kts | 132° |
| 2026-05-09 04:40 | -19.37636 | -41.68539 | 29106 ft | 448 kts | 132° |
| 2026-05-09 04:40 | -19.39662 | -41.66055 | 28604 ft | 444 kts | 132° |
| 2026-05-09 04:40 | -19.41677 | -41.63583 | 28122 ft | 441 kts | 132° |
| 2026-05-09 04:40 | -19.43000 | -41.61960 | 27808 ft | 438 kts | 132° |
| 2026-05-09 04:41 | -19.44987 | -41.59522 | 27332 ft | 435 kts | 132° |
| 2026-05-09 04:41 | -19.46958 | -41.57102 | 26877 ft | 431 kts | 132° |
| 2026-05-09 04:41 | -19.48911 | -41.54703 | 26403 ft | 428 kts | 132° |
| 2026-05-09 04:41 | -19.50850 | -41.52320 | 25937 ft | 426 kts | 131° |
| 2026-05-09 04:42 | -19.52780 | -41.49948 | 25455 ft | 423 kts | 131° |
| 2026-05-09 04:42 | -19.54701 | -41.47586 | 25002 ft | 421 kts | 131° |
| 2026-05-09 04:42 | -19.56613 | -41.45234 | 24534 ft | 420 kts | 131° |
| 2026-05-09 04:42 | -19.58513 | -41.42896 | 24078 ft | 418 kts | 131° |
| 2026-05-09 04:43 | -19.60403 | -41.40569 | 23601 ft | 416 kts | 131° |
| 2026-05-09 04:43 | -19.62285 | -41.38251 | 23091 ft | 413 kts | 131° |
| 2026-05-09 04:43 | -19.64154 | -41.35948 | 22623 ft | 410 kts | 131° |
| 2026-05-09 04:43 | -19.66007 | -41.33664 | 22162 ft | 406 kts | 131° |
| 2026-05-09 04:44 | -19.67843 | -41.31399 | 21709 ft | 403 kts | 130° |
| 2026-05-09 04:44 | -19.69662 | -41.29156 | 21276 ft | 399 kts | 130° |
| 2026-05-09 04:44 | -19.71442 | -41.26959 | 20850 ft | 396 kts | 130° |
| 2026-05-09 04:44 | -19.73233 | -41.24749 | 20420 ft | 393 kts | 130° |
| 2026-05-09 04:45 | -19.75011 | -41.22553 | 19998 ft | 390 kts | 130° |
| 2026-05-09 04:45 | -19.76776 | -41.20372 | 19581 ft | 388 kts | 130° |
| 2026-05-09 04:45 | -19.78526 | -41.18209 | 19148 ft | 385 kts | 130° |
| 2026-05-09 04:45 | -19.80269 | -41.16054 | 18730 ft | 384 kts | 129° |
| 2026-05-09 04:46 | -19.82002 | -41.13911 | 18281 ft | 382 kts | 129° |
| 2026-05-09 04:46 | -19.83727 | -41.11776 | 17808 ft | 379 kts | 129° |
| 2026-05-09 04:46 | -19.85443 | -41.09653 | 17364 ft | 376 kts | 129° |
| 2026-05-09 04:46 | -19.87139 | -41.07552 | 16944 ft | 373 kts | 129° |
| 2026-05-09 04:47 | -19.88821 | -41.05469 | 16526 ft | 370 kts | 129° |
| 2026-05-09 04:47 | -19.90497 | -41.03393 | 16101 ft | 368 kts | 129° |
| 2026-05-09 04:47 | -19.92156 | -41.01337 | 15699 ft | 365 kts | 129° |
| 2026-05-09 04:47 | -19.93760 | -40.99347 | 15303 ft | 363 kts | 129° |
| 2026-05-09 04:48 | -19.95401 | -40.97312 | 14901 ft | 361 kts | 128° |
| 2026-05-09 04:48 | -19.97014 | -40.95310 | 14469 ft | 360 kts | 128° |
| 2026-05-09 04:48 | -19.98641 | -40.93291 | 14057 ft | 359 kts | 128° |
| 2026-05-09 04:48 | -20.00261 | -40.91279 | 13615 ft | 358 kts | 128° |
| 2026-05-09 04:49 | -20.01874 | -40.89276 | 13189 ft | 355 kts | 128° |
| 2026-05-09 04:49 | -20.03469 | -40.87294 | 12773 ft | 353 kts | 128° |
| 2026-05-09 04:49 | -20.05061 | -40.85315 | 12356 ft | 350 kts | 128° |
| 2026-05-09 04:49 | -20.06641 | -40.83353 | 11960 ft | 347 kts | 128° |
| 2026-05-09 04:50 | -20.08205 | -40.81408 | 11568 ft | 345 kts | 128° |
| 2026-05-09 04:50 | -20.09757 | -40.79475 | 11173 ft | 343 kts | 128° |
| 2026-05-09 04:50 | -20.11303 | -40.77549 | 10791 ft | 341 kts | 128° |
| 2026-05-09 04:50 | -20.12827 | -40.75653 | 10597 ft | 333 kts | 128° |
| 2026-05-09 04:51 | -20.14299 | -40.73820 | 10412 ft | 325 kts | 128° |
| 2026-05-09 04:51 | -20.15762 | -40.71999 | 10283 ft | 315 kts | 128° |
| 2026-05-09 04:51 | -20.17153 | -40.70266 | 10127 ft | 308 kts | 128° |
| 2026-05-09 04:51 | -20.18538 | -40.68539 | 9814 ft | 306 kts | 128° |
| 2026-05-09 04:52 | -20.19921 | -40.66814 | 9490 ft | 305 kts | 128° |
| 2026-05-09 04:52 | -20.21288 | -40.65107 | 9166 ft | 300 kts | 128° |
| 2026-05-09 04:52 | -20.22636 | -40.63425 | 8838 ft | 297 kts | 127° |
| 2026-05-09 04:52 | -20.23968 | -40.61760 | 8554 ft | 294 kts | 127° |
| 2026-05-09 04:53 | -20.25291 | -40.60109 | 8248 ft | 292 kts | 128° |
| 2026-05-09 04:53 | -20.26601 | -40.58473 | 7960 ft | 289 kts | 127° |
| 2026-05-09 04:53 | -20.27905 | -40.56844 | 7674 ft | 289 kts | 127° |
| 2026-05-09 04:53 | -20.29209 | -40.55213 | 7347 ft | 289 kts | 127° |
| 2026-05-09 04:54 | -20.30512 | -40.53583 | 7050 ft | 289 kts | 127° |
| 2026-05-09 04:54 | -20.31796 | -40.51977 | 6760 ft | 288 kts | 127° |
| 2026-05-09 04:54 | -20.33096 | -40.50351 | 6446 ft | 288 kts | 127° |
| 2026-05-09 04:54 | -20.34383 | -40.48741 | 6239 ft | 282 kts | 127° |
| 2026-05-09 04:55 | -20.35639 | -40.47170 | 6110 ft | 275 kts | 127° |
| 2026-05-09 04:55 | -20.36867 | -40.45630 | 5970 ft | 269 kts | 126° |
| 2026-05-09 04:55 | -20.38064 | -40.44129 | 5848 ft | 261 kts | 126° |
| 2026-05-09 04:55 | -20.39218 | -40.42674 | 5749 ft | 253 kts | 126° |
| 2026-05-09 04:56 | -20.40340 | -40.41261 | 5617 ft | 246 kts | 126° |
| 2026-05-09 04:56 | -20.41429 | -40.39892 | 5504 ft | 239 kts | 126° |
| 2026-05-09 04:56 | -20.42498 | -40.38545 | 5259 ft | 237 kts | 126° |
| 2026-05-09 04:56 | -20.43560 | -40.37207 | 5044 ft | 235 kts | 126° |
| 2026-05-09 04:57 | -20.44362 | -40.35733 | 4724 ft | 227 kts | 95° |
| 2026-05-09 04:57 | -20.44359 | -40.34134 | 4536 ft | 213 kts | 79° |
| 2026-05-09 04:57 | -20.44158 | -40.32580 | 4259 ft | 209 kts | 77° |
| 2026-05-09 04:57 | -20.43948 | -40.31064 | 4026 ft | 204 kts | 77° |
| 2026-05-09 04:58 | -20.43745 | -40.29584 | 3802 ft | 200 kts | 77° |
| 2026-05-09 04:58 | -20.43551 | -40.28135 | 3585 ft | 196 kts | 77° |
| 2026-05-09 04:58 | -20.43191 | -40.26769 | 3362 ft | 188 kts | 52° |
| 2026-05-09 04:58 | -20.42233 | -40.25926 | 3194 ft | 175 kts | 21° |
| 2026-05-09 04:59 | -20.41068 | -40.25740 | 2986 ft | 167 kts | 354° |
| 2026-05-09 04:59 | -20.39931 | -40.25906 | 2792 ft | 164 kts | 353° |
| 2026-05-09 04:59 | -20.38805 | -40.26057 | 2584 ft | 162 kts | 354° |
| 2026-05-09 04:59 | -20.37682 | -40.26210 | 2409 ft | 165 kts | 353° |
| 2026-05-09 05:00 | -20.36531 | -40.26378 | 2162 ft | 169 kts | 353° |
| 2026-05-09 05:00 | -20.35355 | -40.26552 | 1934 ft | 171 kts | 352° |
| 2026-05-09 05:00 | -20.34207 | -40.26722 | 1685 ft | 162 kts | 353° |
| 2026-05-09 05:00 | -20.33147 | -40.26879 | 1486 ft | 147 kts | 352° |
| 2026-05-09 05:01 | -20.32144 | -40.27027 | 1267 ft | 143 kts | 352° |
| 2026-05-09 05:01 | -20.31174 | -40.27171 | 1074 ft | 144 kts | 352° |
| 2026-05-09 05:01 | -20.30178 | -40.27315 | 865 ft | 143 kts | 352° |
| 2026-05-09 05:01 | -20.29208 | -40.27448 | 632 ft | 140 kts | 352° |
| 2026-05-09 05:02 | -20.28246 | -40.27605 | 404 ft | 141 kts | 351° |
| 2026-05-09 05:02 | -20.27275 | -40.27753 | 203 ft | 141 kts | 352° |
| 2026-05-09 05:02 | -20.26310 | -40.27891 | 29 ft | 135 kts | 352° |
| 2026-05-09 05:02 | -20.25493 | -40.28010 | 20 ft | 94 kts | 352° |
| 2026-05-09 05:03 | -20.25167 | -40.28063 | 18 ft | 15 kts | 341° |
| 2026-05-09 05:03 | -20.25068 | -40.28105 | 18 ft | 15 kts | 336° |
| 2026-05-09 05:03 | -20.25030 | -40.28169 | 17 ft | 9 kts | 248° |
| 2026-05-09 05:03 | -20.25079 | -40.28210 | 17 ft | 9 kts | 211° |
| 2026-05-09 05:04 | -20.25135 | -40.28234 | 18 ft | 9 kts | 185° |
| 2026-05-09 05:04 | -20.25203 | -40.28227 | 17 ft | 12 kts | 172° |
| 2026-05-09 05:04 | -20.25303 | -40.28212 | 17 ft | 17 kts | 172° |
| 2026-05-09 05:04 | -20.25433 | -40.28195 | 19 ft | 20 kts | 173° |
| 2026-05-09 05:05 | -20.25568 | -40.28174 | 17 ft | 19 kts | 172° |
| 2026-05-09 05:05 | -20.25698 | -40.28156 | 19 ft | 19 kts | 173° |
| 2026-05-09 05:05 | -20.25824 | -40.28137 | 17 ft | 18 kts | 172° |
| 2026-05-09 05:05 | -20.25946 | -40.28118 | 17 ft | 17 kts | 172° |
| 2026-05-09 05:06 | -20.26063 | -40.28102 | 17 ft | 17 kts | 172° |
| 2026-05-09 05:06 | -20.26176 | -40.28085 | 17 ft | 16 kts | 172° |
| 2026-05-09 05:06 | -20.26284 | -40.28069 | 17 ft | 15 kts | 172° |
| 2026-05-09 05:06 | -20.26388 | -40.28054 | 17 ft | 15 kts | 172° |
| 2026-05-09 05:07 | -20.26484 | -40.28041 | 17 ft | 13 kts | 173° |
| 2026-05-09 05:07 | -20.26522 | -40.28052 | 17 ft | 4 kts | 261° |
| 2026-05-09 05:07 | -20.26524 | -40.28082 | 17 ft | 4 kts | 265° |
| 2026-05-09 05:07 | -20.26527 | -40.28111 | 18 ft | 4 kts | 262° |
| 2026-05-09 05:08 | -20.26531 | -40.28141 | 17 ft | 4 kts | 262° |
| 2026-05-09 05:08 | -20.26533 | -40.28156 | 17 ft | 0 kts | 262° |
| 2026-05-09 05:08 | -20.26533 | -40.28159 | 17 ft | 1 kts | 263° |
| 2026-05-09 05:08 | -20.26534 | -40.28164 | 17 ft | 1 kts | 263° |
| 2026-05-09 05:09 | -20.26534 | -40.28166 | 17 ft | 0 kts | 263° |